States of Jersey

Home Log in

METAR EGJJ 231320Z 28023KT 9999 FEW024 SCT030 10/06 Q1006 NOSIG

METAR EGJB 231320Z 27023G35KT 9999 FEW024 10/05 Q1006

METAR EGJA 231320Z 28027G39KT 9999 FEW025 09/05 Q1004

METAR LFRD 231330Z AUTO 30018KT 9999 BKN036 11/04 Q1008 BECMG 28020G30KT

METAR LFRC 231330Z AUTO 25026KT 9999 BKN027 OVC034 09/05 Q1003 BECMG 27030G43KT